Arizona City, AZ

2:14 PM MST on October 20, 2014 (GMT -0700)
Vyn's tower | Change Station
CLOSE
Current Station
Personal Weather Station
Location: Arizona City, AZ
Elevation: 1530 ft
Nearby Weather Stations

Elev 1530 ft 32.73 °N, 111.66 °W | Updated 12 seconds ago

Clear
Clear
85.6 °F
Feels Like 83 °F
N
0.9
Wind Variable Wind from ESE
Gusts 4.0 mph

Today
High -- | Low -- °F
--% Chance of Precip.
Yesterday
High -- | Low -- °F
Precip. -- in
6:34 AM 5:47 PM
Waning Crescent, 9% visible
Pressure 29.86 in
Visibility 10.0 miles
Clouds Clear
Heat Index 83 °F
Dew Point 48 °F
Humidity 27%
Rainfall 0.00 in
Snow Depth Not available.
UV 5 out of 12
Pollen 5.50 out of 12
Ozone Good
Flu Activity No Activity
METAR KCGZ 202055Z AUTO 00000KT 10SM CLR 29/08 A2986 RMK AO1 57024

More Conditions Fewer Conditions

Pressure 29.86 in
Visibility 10.0 miles
Clouds Clear
Heat Index 83 °F
Dew Point 48 °F
Humidity 27%
Rainfall 0.00 in
Snow Depth Not available.
UV 5 out of 12
Pollen 5.50 out of 12
Ozone Good
Flu Activity No Activity
METAR KCGZ 202055Z AUTO 00000KT 10SM CLR 29/08 A2986 RMK AO1 57024

More Conditions Fewer Conditions

10-Day Weather Forecast

Almanac

Astronomy

Oct. 20, 2014 Rise Set
Actual Time 6:34 AM MST 5:47 PM MST
Civil Twilight 6:09 AM MST 6:12 PM MST
Nautical Twilight 5:40 AM MST 6:41 PM MST
Astronomical Twilight 5:12 AM MST 7:09 PM MST
Moon 3:36 AM MST 4:03 PM MST
Length of Visible Light 12h 03m
Length of Day
11h 13m
Waning Crescent, 9% of the Moon is Illuminated
Today
Waning Crescent
Oct 23
New
Oct 30
First Quarter
Nov 6
Full
Nov 14
Last Quarter

Today's Extremes

State Highs State Lows

Community

WunderPhotos

Upload Photos

1,763,510 photos uploaded!

WunderBlogs® & News

By Dr. Jeff Masters
Director of Meteorology, Weather Underground
By Kari Strenfel
Meteorologist, Weather Underground
By Christopher C. Burt
Weather Historian, Weather Underground
October 20, 2014
October 20, 2014
October 20, 2014

Nearby

Air Quality

  Air Quality AQ Index Pollutant
Yesterday Good
OZONE
Current Good
OZONE
Monday Moderate
PM10
Monday Good
OZONE
Tuesday Moderate
PM10
Tuesday Good
OZONE
Wednesday Moderate
PM10
Wednesday Good
OZONE
Thursday Moderate
PM10
Thursday Good
OZONE
Friday Moderate
PM10
Friday Good
OZONE
Saturday Moderate
PM10
Saturday Good
OZONE

Snow Depth

Station Depth Elevation
Workman Creek 0 in 6900 ft
Baldy 0 in 9125 ft

Earthquake Activity

City Distance Mag. Time & Date
No recent earthquake activity has been reported nearby.
Minimum magnitude displayed is 2.5.

Coastal Water Temperatures

Place Temperature
No Stations Reporting

Nearby Weather Stations